sensor_id;sensor_type;location;lat;lon;timestamp;pressure;altitude;pressure_sealevel;temperature;humidity
58471;BME280;44258;51.288;12.068;2023-10-09T00:02:12;100991.31;;;13.18;74.90
58471;BME280;44258;51.288;12.068;2023-10-09T00:04:40;100992.25;;;13.17;74.73
58471;BME280;44258;51.288;12.068;2023-10-09T00:07:11;100991.03;;;13.06;75.39
58471;BME280;44258;51.288;12.068;2023-10-09T00:09:41;100990.09;;;13.07;75.04
58471;BME280;44258;51.288;12.068;2023-10-09T00:12:17;100981.72;;;12.96;75.82
58471;BME280;44258;51.288;12.068;2023-10-09T00:14:47;100980.84;;;12.95;75.64
58471;BME280;44258;51.288;12.068;2023-10-09T00:17:17;100982.75;;;12.93;75.77
58471;BME280;44258;51.288;12.068;2023-10-09T00:19:44;100978.75;;;12.85;75.77
58471;BME280;44258;51.288;12.068;2023-10-09T00:22:14;100969.25;;;12.78;76.12
58471;BME280;44258;51.288;12.068;2023-10-09T00:24:52;100966.28;;;12.82;76.53
58471;BME280;44258;51.288;12.068;2023-10-09T00:27:37;100952.28;;;12.91;76.27
58471;BME280;44258;51.288;12.068;2023-10-09T00:30:16;100947.47;;;12.97;76.17
58471;BME280;44258;51.288;12.068;2023-10-09T00:32:48;100938.16;;;13.02;76.11
58471;BME280;44258;51.288;12.068;2023-10-09T00:35:25;100929.00;;;13.05;75.81
58471;BME280;44258;51.288;12.068;2023-10-09T00:38:19;100929.63;;;12.94;76.16
58471;BME280;44258;51.288;12.068;2023-10-09T00:40:51;100924.66;;;13.02;76.23
58471;BME280;44258;51.288;12.068;2023-10-09T00:43:39;100923.09;;;13.14;76.11
58471;BME280;44258;51.288;12.068;2023-10-09T00:46:16;100925.97;;;13.11;76.80
58471;BME280;44258;51.288;12.068;2023-10-09T00:48:52;100928.97;;;13.22;76.05
58471;BME280;44258;51.288;12.068;2023-10-09T00:51:20;100909.16;;;13.22;76.00
58471;BME280;44258;51.288;12.068;2023-10-09T00:53:51;100905.25;;;13.11;75.89
58471;BME280;44258;51.288;12.068;2023-10-09T00:56:20;100902.91;;;13.05;76.38
58471;BME280;44258;51.288;12.068;2023-10-09T00:58:56;100890.28;;;13.06;76.21
58471;BME280;44258;51.288;12.068;2023-10-09T01:01:34;100886.72;;;13.05;76.29
58471;BME280;44258;51.288;12.068;2023-10-09T01:04:04;100894.63;;;13.08;76.50
58471;BME280;44258;51.288;12.068;2023-10-09T01:06:42;100891.56;;;13.14;76.53
58471;BME280;44258;51.288;12.068;2023-10-09T01:09:11;100897.66;;;13.18;76.19
58471;BME280;44258;51.288;12.068;2023-10-09T01:11:39;100880.16;;;13.09;76.08
58471;BME280;44258;51.288;12.068;2023-10-09T01:14:29;100876.63;;;12.93;76.76
58471;BME280;44258;51.288;12.068;2023-10-09T01:16:56;100870.94;;;12.98;76.88
58471;BME280;44258;51.288;12.068;2023-10-09T01:19:29;100869.72;;;13.03;77.25
58471;BME280;44258;51.288;12.068;2023-10-09T01:21:59;100864.63;;;13.13;76.51
58471;BME280;44258;51.288;12.068;2023-10-09T01:24:31;100859.94;;;13.17;76.86
58471;BME280;44258;51.288;12.068;2023-10-09T01:27:08;100855.31;;;13.19;76.45
58471;BME280;44258;51.288;12.068;2023-10-09T01:29:38;100865.88;;;13.23;76.31
58471;BME280;44258;51.288;12.068;2023-10-09T01:32:07;100860.56;;;13.22;76.42
58471;BME280;44258;51.288;12.068;2023-10-09T01:34:42;100844.59;;;13.17;76.09
58471;BME280;44258;51.288;12.068;2023-10-09T01:37:11;100837.84;;;13.10;76.61
58471;BME280;44258;51.288;12.068;2023-10-09T01:40:06;100839.91;;;13.21;77.36
58471;BME280;44258;51.288;12.068;2023-10-09T01:42:50;100825.63;;;13.03;77.58
58471;BME280;44258;51.288;12.068;2023-10-09T01:45:17;100827.63;;;13.15;77.33
58471;BME280;44258;51.288;12.068;2023-10-09T01:48:01;100833.63;;;13.20;77.54
58471;BME280;44258;51.288;12.068;2023-10-09T01:50:33;100831.22;;;13.15;78.10
58471;BME280;44258;51.288;12.068;2023-10-09T01:53:02;100815.09;;;13.30;76.87
58471;BME280;44258;51.288;12.068;2023-10-09T01:55:34;100805.16;;;13.30;77.32
58471;BME280;44258;51.288;12.068;2023-10-09T01:58:06;100806.47;;;12.61;80.75
58471;BME280;44258;51.288;12.068;2023-10-09T02:00:42;100797.97;;;12.99;78.15
58471;BME280;44258;51.288;12.068;2023-10-09T02:03:16;100802.91;;;13.07;78.22
58471;BME280;44258;51.288;12.068;2023-10-09T02:05:43;100783.63;;;13.13;78.24
58471;BME280;44258;51.288;12.068;2023-10-09T02:08:09;100791.03;;;12.79;79.48
58471;BME280;44258;51.288;12.068;2023-10-09T02:10:44;100776.69;;;13.09;77.90
58471;BME280;44258;51.288;12.068;2023-10-09T02:13:13;100760.56;;;13.23;76.68
58471;BME280;44258;51.288;12.068;2023-10-09T02:15:42;100751.34;;;13.27;76.72
58471;BME280;44258;51.288;12.068;2023-10-09T02:18:24;100746.50;;;13.32;76.44
58471;BME280;44258;51.288;12.068;2023-10-09T02:21:11;100736.94;;;13.27;76.37
58471;BME280;44258;51.288;12.068;2023-10-09T02:23:44;100726.84;;;13.14;76.95
58471;BME280;44258;51.288;12.068;2023-10-09T02:26:30;100736.59;;;13.17;77.06
58471;BME280;44258;51.288;12.068;2023-10-09T02:29:19;100733.97;;;13.31;76.96
58471;BME280;44258;51.288;12.068;2023-10-09T02:31:49;100729.06;;;13.38;76.84
58471;BME280;44258;51.288;12.068;2023-10-09T02:34:20;100730.22;;;13.48;76.93
58471;BME280;44258;51.288;12.068;2023-10-09T02:36:51;100727.13;;;13.54;76.56
58471;BME280;44258;51.288;12.068;2023-10-09T02:39:23;100715.25;;;13.57;76.33
58471;BME280;44258;51.288;12.068;2023-10-09T02:41:53;100713.63;;;13.54;76.08
58471;BME280;44258;51.288;12.068;2023-10-09T02:44:35;100720.66;;;13.57;76.36
58471;BME280;44258;51.288;12.068;2023-10-09T02:47:05;100728.84;;;13.41;77.51
58471;BME280;44258;51.288;12.068;2023-10-09T02:49:40;100712.56;;;13.57;77.07
58471;BME280;44258;51.288;12.068;2023-10-09T02:52:17;100698.75;;;13.62;76.64
58471;BME280;44258;51.288;12.068;2023-10-09T02:54:53;100692.09;;;13.67;76.16
58471;BME280;44258;51.288;12.068;2023-10-09T02:57:27;100675.88;;;13.67;76.11
58471;BME280;44258;51.288;12.068;2023-10-09T03:00:06;100690.56;;;13.63;76.81
58471;BME280;44258;51.288;12.068;2023-10-09T03:02:46;100697.97;;;13.60;77.08
58471;BME280;44258;51.288;12.068;2023-10-09T03:05:15;100697.03;;;13.61;77.21
58471;BME280;44258;51.288;12.068;2023-10-09T03:07:51;100694.34;;;13.61;77.29
58471;BME280;44258;51.288;12.068;2023-10-09T03:10:22;100687.00;;;13.63;77.18
58471;BME280;44258;51.288;12.068;2023-10-09T03:12:51;100679.34;;;13.69;76.90
58471;BME280;44258;51.288;12.068;2023-10-09T03:15:19;100681.28;;;13.53;77.54
58471;BME280;44258;51.288;12.068;2023-10-09T03:17:51;100677.13;;;13.62;77.17
58471;BME280;44258;51.288;12.068;2023-10-09T03:20:20;100688.94;;;13.61;77.42
58471;BME280;44258;51.288;12.068;2023-10-09T03:22:50;100683.81;;;13.70;76.92
58471;BME280;44258;51.288;12.068;2023-10-09T03:25:21;100686.22;;;13.75;76.74
58471;BME280;44258;51.288;12.068;2023-10-09T03:27:52;100687.53;;;13.82;76.37
58471;BME280;44258;51.288;12.068;2023-10-09T03:30:25;100687.66;;;13.81;76.86
58471;BME280;44258;51.288;12.068;2023-10-09T03:32:55;100688.22;;;13.71;77.06
58471;BME280;44258;51.288;12.068;2023-10-09T03:35:25;100689.41;;;13.67;77.09
58471;BME280;44258;51.288;12.068;2023-10-09T03:37:57;100685.44;;;13.73;76.94
58471;BME280;44258;51.288;12.068;2023-10-09T03:40:26;100674.03;;;13.82;76.38
58471;BME280;44258;51.288;12.068;2023-10-09T03:42:56;100664.97;;;13.83;76.45
58471;BME280;44258;51.288;12.068;2023-10-09T03:45:24;100659.16;;;13.89;76.12
58471;BME280;44258;51.288;12.068;2023-10-09T03:47:59;100652.41;;;13.82;76.13
58471;BME280;44258;51.288;12.068;2023-10-09T03:50:34;100653.94;;;13.86;76.41
58471;BME280;44258;51.288;12.068;2023-10-09T03:53:03;100648.06;;;13.80;76.15
58471;BME280;44258;51.288;12.068;2023-10-09T03:55:36;100631.78;;;13.67;76.19
58471;BME280;44258;51.288;12.068;2023-10-09T03:58:09;100622.25;;;13.47;77.25
58471;BME280;44258;51.288;12.068;2023-10-09T04:00:40;100614.16;;;13.47;77.25
58471;BME280;44258;51.288;12.068;2023-10-09T04:03:10;100614.44;;;13.42;77.46
58471;BME280;44258;51.288;12.068;2023-10-09T04:05:39;100609.53;;;13.34;77.88
58471;BME280;44258;51.288;12.068;2023-10-09T04:08:08;100617.53;;;13.36;78.34
58471;BME280;44258;51.288;12.068;2023-10-09T04:10:38;100603.66;;;13.42;77.94
58471;BME280;44258;51.288;12.068;2023-10-09T04:13:20;100602.78;;;13.42;78.43
58471;BME280;44258;51.288;12.068;2023-10-09T04:15:55;100596.69;;;13.52;78.10
58471;BME280;44258;51.288;12.068;2023-10-09T04:18:22;100595.53;;;13.57;77.88
58471;BME280;44258;51.288;12.068;2023-10-09T04:21:00;100587.19;;;13.60;77.96
58471;BME280;44258;51.288;12.068;2023-10-09T04:23:44;100574.81;;;13.70;77.88
58471;BME280;44258;51.288;12.068;2023-10-09T04:26:43;100582.69;;;13.60;79.02
58471;BME280;44258;51.288;12.068;2023-10-09T04:29:23;100576.16;;;13.50;79.52
58471;BME280;44258;51.288;12.068;2023-10-09T04:31:53;100575.63;;;13.58;79.58
58471;BME280;44258;51.288;12.068;2023-10-09T04:34:22;100566.06;;;13.66;79.38
58471;BME280;44258;51.288;12.068;2023-10-09T04:36:55;100575.03;;;13.67;79.09
58471;BME280;44258;51.288;12.068;2023-10-09T04:39:26;100571.88;;;13.60;79.74
58471;BME280;44258;51.288;12.068;2023-10-09T04:42:11;100569.22;;;13.73;79.55
58471;BME280;44258;51.288;12.068;2023-10-09T04:45:14;100569.13;;;13.74;78.58
58471;BME280;44258;51.288;12.068;2023-10-09T04:48:18;100567.44;;;13.59;80.09
58471;BME280;44258;51.288;12.068;2023-10-09T04:50:58;100560.66;;;13.66;79.35
58471;BME280;44258;51.288;12.068;2023-10-09T04:53:57;100555.81;;;13.71;79.33
58471;BME280;44258;51.288;12.068;2023-10-09T04:56:42;100555.91;;;13.70;79.43
58471;BME280;44258;51.288;12.068;2023-10-09T04:59:21;100555.63;;;13.74;79.99
58471;BME280;44258;51.288;12.068;2023-10-09T05:02:14;100557.03;;;13.80;79.87
58471;BME280;44258;51.288;12.068;2023-10-09T05:04:45;100555.44;;;13.90;79.87
58471;BME280;44258;51.288;12.068;2023-10-09T05:07:36;100551.38;;;13.98;79.38
58471;BME280;44258;51.288;12.068;2023-10-09T05:10:21;100556.78;;;13.98;79.09
58471;BME280;44258;51.288;12.068;2023-10-09T05:12:51;100554.09;;;13.98;80.30
58471;BME280;44258;51.288;12.068;2023-10-09T05:15:23;100546.56;;;14.03;80.21
58471;BME280;44258;51.288;12.068;2023-10-09T05:17:56;100555.44;;;14.05;80.28
58471;BME280;44258;51.288;12.068;2023-10-09T05:20:23;100548.41;;;14.15;79.85
58471;BME280;44258;51.288;12.068;2023-10-09T05:23:07;100534.91;;;14.15;80.00
58471;BME280;44258;51.288;12.068;2023-10-09T05:25:54;100527.84;;;14.12;79.90
58471;BME280;44258;51.288;12.068;2023-10-09T05:28:25;100537.69;;;14.13;79.55
58471;BME280;44258;51.288;12.068;2023-10-09T05:30:56;100541.69;;;14.08;79.69
58471;BME280;44258;51.288;12.068;2023-10-09T05:33:33;100545.78;;;14.01;80.43
58471;BME280;44258;51.288;12.068;2023-10-09T05:36:04;100549.34;;;14.01;80.41
58471;BME280;44258;51.288;12.068;2023-10-09T05:39:00;100557.03;;;14.07;80.61
58471;BME280;44258;51.288;12.068;2023-10-09T05:41:42;100545.78;;;14.01;80.70
58471;BME280;44258;51.288;12.068;2023-10-09T05:44:25;100548.59;;;13.99;81.83
58471;BME280;44258;51.288;12.068;2023-10-09T05:47:09;100553.91;;;13.86;83.78
58471;BME280;44258;51.288;12.068;2023-10-09T05:50:01;100550.25;;;13.87;83.70
58471;BME280;44258;51.288;12.068;2023-10-09T05:52:42;100551.19;;;14.01;83.21
58471;BME280;44258;51.288;12.068;2023-10-09T05:55:30;100557.97;;;13.93;84.20
58471;BME280;44258;51.288;12.068;2023-10-09T05:58:32;100557.19;;;13.91;84.93
58471;BME280;44258;51.288;12.068;2023-10-09T06:01:29;100561.94;;;13.88;85.64
58471;BME280;44258;51.288;12.068;2023-10-09T06:04:17;100560.31;;;13.85;86.01
58471;BME280;44258;51.288;12.068;2023-10-09T06:06:47;100569.91;;;13.77;86.77
58471;BME280;44258;51.288;12.068;2023-10-09T06:09:21;100575.84;;;13.82;87.00
58471;BME280;44258;51.288;12.068;2023-10-09T06:12:09;100577.19;;;13.89;86.87
58471;BME280;44258;51.288;12.068;2023-10-09T06:15:09;100589.06;;;13.86;86.89
58471;BME280;44258;51.288;12.068;2023-10-09T06:17:54;100587.50;;;13.97;86.10
58471;BME280;44258;51.288;12.068;2023-10-09T06:20:38;100583.91;;;13.96;86.13
58471;BME280;44258;51.288;12.068;2023-10-09T06:23:37;100585.44;;;14.00;86.19
58471;BME280;44258;51.288;12.068;2023-10-09T06:26:21;100580.16;;;13.99;86.41
58471;BME280;44258;51.288;12.068;2023-10-09T06:28:52;100580.25;;;13.97;86.51
58471;BME280;44258;51.288;12.068;2023-10-09T06:31:40;100591.09;;;13.97;87.14
58471;BME280;44258;51.288;12.068;2023-10-09T06:34:29;100596.06;;;14.03;86.96
58471;BME280;44258;51.288;12.068;2023-10-09T06:37:12;100593.56;;;14.00;87.20
58471;BME280;44258;51.288;12.068;2023-10-09T06:40:00;100606.13;;;14.01;87.41
58471;BME280;44258;51.288;12.068;2023-10-09T06:42:57;100612.44;;;14.14;86.57
58471;BME280;44258;51.288;12.068;2023-10-09T06:45:23;100608.69;;;14.17;87.13
58471;BME280;44258;51.288;12.068;2023-10-09T06:48:12;100612.38;;;14.29;86.26
58471;BME280;44258;51.288;12.068;2023-10-09T06:50:57;100615.88;;;14.31;86.16
58471;BME280;44258;51.288;12.068;2023-10-09T06:53:43;100613.28;;;14.29;86.86
58471;BME280;44258;51.288;12.068;2023-10-09T06:56:26;100618.59;;;14.31;86.76
58471;BME280;44258;51.288;12.068;2023-10-09T06:59:17;100618.69;;;14.29;87.52
58471;BME280;44258;51.288;12.068;2023-10-09T07:01:47;100625.88;;;14.43;87.02
58471;BME280;44258;51.288;12.068;2023-10-09T07:04:35;100630.69;;;14.52;86.69
58471;BME280;44258;51.288;12.068;2023-10-09T07:07:39;100640.22;;;14.58;87.30
58471;BME280;44258;51.288;12.068;2023-10-09T07:10:21;100645.63;;;14.58;87.16
58471;BME280;44258;51.288;12.068;2023-10-09T07:13:00;100636.59;;;14.45;88.29
58471;BME280;44258;51.288;12.068;2023-10-09T07:15:27;100633.38;;;14.52;88.29
58471;BME280;44258;51.288;12.068;2023-10-09T07:18:16;100635.41;;;14.49;88.20
58471;BME280;44258;51.288;12.068;2023-10-09T07:20:50;100634.91;;;14.57;87.97
58471;BME280;44258;51.288;12.068;2023-10-09T07:23:27;100628.97;;;14.64;87.61
58471;BME280;44258;51.288;12.068;2023-10-09T07:26:05;100638.38;;;14.71;87.38
58471;BME280;44258;51.288;12.068;2023-10-09T07:29:04;100643.59;;;14.74;86.90
58471;BME280;44258;51.288;12.068;2023-10-09T07:31:50;100650.75;;;14.75;87.16
58471;BME280;44258;51.288;12.068;2023-10-09T07:34:24;100653.78;;;14.84;87.08
58471;BME280;44258;51.288;12.068;2023-10-09T07:37:20;100664.09;;;14.79;87.51
58471;BME280;44258;51.288;12.068;2023-10-09T07:39:58;100668.06;;;14.73;88.06
58471;BME280;44258;51.288;12.068;2023-10-09T07:42:32;100658.25;;;14.85;87.13
58471;BME280;44258;51.288;12.068;2023-10-09T07:45:11;100652.50;;;14.77;89.02
58471;BME280;44258;51.288;12.068;2023-10-09T07:47:59;100656.31;;;14.87;87.95
58471;BME280;44258;51.288;12.068;2023-10-09T07:50:35;100661.28;;;14.93;88.49
58471;BME280;44258;51.288;12.068;2023-10-09T07:53:06;100663.91;;;15.07;87.50
58471;BME280;44258;51.288;12.068;2023-10-09T07:55:43;100660.44;;;15.05;87.36
58471;BME280;44258;51.288;12.068;2023-10-09T07:58:25;100650.78;;;15.01;87.68
58471;BME280;44258;51.288;12.068;2023-10-09T08:01:03;100666.94;;;15.03;88.04
58471;BME280;44258;51.288;12.068;2023-10-09T08:03:32;100675.25;;;15.12;87.60
58471;BME280;44258;51.288;12.068;2023-10-09T08:05:59;100674.31;;;15.13;87.24
58471;BME280;44258;51.288;12.068;2023-10-09T08:08:32;100677.88;;;15.14;87.44
58471;BME280;44258;51.288;12.068;2023-10-09T08:11:07;100688.19;;;15.22;87.75
58471;BME280;44258;51.288;12.068;2023-10-09T08:13:55;100686.03;;;15.27;87.76
58471;BME280;44258;51.288;12.068;2023-10-09T08:16:47;100694.91;;;15.29;87.49
58471;BME280;44258;51.288;12.068;2023-10-09T08:19:13;100680.63;;;15.27;87.30
58471;BME280;44258;51.288;12.068;2023-10-09T08:22:01;100661.66;;;15.27;87.23
58471;BME280;44258;51.288;12.068;2023-10-09T08:25:06;100676.25;;;15.24;87.61
58471;BME280;44258;51.288;12.068;2023-10-09T08:27:33;100677.16;;;15.25;87.63
58471;BME280;44258;51.288;12.068;2023-10-09T08:30:20;100670.84;;;15.24;87.37
58471;BME280;44258;51.288;12.068;2023-10-09T08:33:08;100669.31;;;15.20;87.83
58471;BME280;44258;51.288;12.068;2023-10-09T08:35:54;100662.41;;;15.29;87.53
58471;BME280;44258;51.288;12.068;2023-10-09T08:38:36;100666.50;;;15.22;88.12
58471;BME280;44258;51.288;12.068;2023-10-09T08:41:11;100674.00;;;15.31;87.98
58471;BME280;44258;51.288;12.068;2023-10-09T08:43:49;100673.47;;;15.39;87.35
58471;BME280;44258;51.288;12.068;2023-10-09T08:46:19;100659.47;;;15.32;87.34
58471;BME280;44258;51.288;12.068;2023-10-09T08:48:49;100669.25;;;15.34;87.76
58471;BME280;44258;51.288;12.068;2023-10-09T08:51:20;100669.91;;;15.38;87.64
58471;BME280;44258;51.288;12.068;2023-10-09T08:53:46;100669.56;;;15.43;87.17
58471;BME280;44258;51.288;12.068;2023-10-09T08:56:13;100671.50;;;15.41;87.98
58471;BME280;44258;51.288;12.068;2023-10-09T08:58:49;100679.34;;;15.45;88.63
58471;BME280;44258;51.288;12.068;2023-10-09T09:01:17;100678.47;;;15.58;88.07
58471;BME280;44258;51.288;12.068;2023-10-09T09:03:49;100678.66;;;15.67;87.62
58471;BME280;44258;51.288;12.068;2023-10-09T09:06:17;100675.63;;;15.72;87.33
58471;BME280;44258;51.288;12.068;2023-10-09T09:08:45;100688.19;;;15.73;86.91
58471;BME280;44258;51.288;12.068;2023-10-09T09:11:13;100677.47;;;15.59;87.97
58471;BME280;44258;51.288;12.068;2023-10-09T09:13:44;100678.97;;;15.63;88.06
58471;BME280;44258;51.288;12.068;2023-10-09T09:16:19;100683.88;;;15.58;88.26
58471;BME280;44258;51.288;12.068;2023-10-09T09:18:52;100672.50;;;15.52;89.23
58471;BME280;44258;51.288;12.068;2023-10-09T09:21:30;100680.63;;;15.52;89.13
58471;BME280;44258;51.288;12.068;2023-10-09T09:24:05;100672.59;;;15.64;88.77
58471;BME280;44258;51.288;12.068;2023-10-09T09:26:46;100673.81;;;15.60;88.68
58471;BME280;44258;51.288;12.068;2023-10-09T09:29:14;100670.19;;;15.59;88.62
58471;BME280;44258;51.288;12.068;2023-10-09T09:31:53;100664.25;;;15.54;88.98
58471;BME280;44258;51.288;12.068;2023-10-09T09:34:24;100667.50;;;15.46;89.59
58471;BME280;44258;51.288;12.068;2023-10-09T09:36:55;100650.72;;;15.41;89.74
58471;BME280;44258;51.288;12.068;2023-10-09T09:39:24;100639.56;;;15.46;89.71
58471;BME280;44258;51.288;12.068;2023-10-09T09:41:55;100639.22;;;15.50;89.59
58471;BME280;44258;51.288;12.068;2023-10-09T09:44:30;100630.75;;;15.55;89.38
58471;BME280;44258;51.288;12.068;2023-10-09T09:47:00;100627.63;;;15.48;89.66
58471;BME280;44258;51.288;12.068;2023-10-09T09:49:29;100624.47;;;15.54;89.69
58471;BME280;44258;51.288;12.068;2023-10-09T09:52:00;100624.78;;;15.63;89.34
58471;BME280;44258;51.288;12.068;2023-10-09T09:54:28;100626.88;;;15.83;88.68
58471;BME280;44258;51.288;12.068;2023-10-09T09:56:59;100619.50;;;15.85;88.67
58471;BME280;44258;51.288;12.068;2023-10-09T09:59:37;100615.06;;;15.84;88.47
58471;BME280;44258;51.288;12.068;2023-10-09T10:02:09;100609.50;;;15.86;88.54
58471;BME280;44258;51.288;12.068;2023-10-09T10:04:43;100609.84;;;15.94;88.15
58471;BME280;44258;51.288;12.068;2023-10-09T10:07:15;100603.31;;;15.97;88.41
58471;BME280;44258;51.288;12.068;2023-10-09T10:09:46;100586.47;;;16.04;88.37
58471;BME280;44258;51.288;12.068;2023-10-09T10:12:50;100580.63;;;15.98;89.08
58471;BME280;44258;51.288;12.068;2023-10-09T10:16:05;100585.88;;;15.88;89.35
58471;BME280;44258;51.288;12.068;2023-10-09T10:18:58;100578.16;;;15.94;89.37
58471;BME280;44258;51.288;12.068;2023-10-09T10:21:51;100588.06;;;15.83;90.52
58471;BME280;44258;51.288;12.068;2023-10-09T10:24:43;100580.13;;;15.92;90.38
58471;BME280;44258;51.288;12.068;2023-10-09T10:27:26;100574.84;;;15.78;91.13
58471;BME280;44258;51.288;12.068;2023-10-09T10:33:02;100566.72;;;15.78;91.98
58471;BME280;44258;51.288;12.068;2023-10-09T10:35:39;100561.16;;;16.04;90.99
58471;BME280;44258;51.288;12.068;2023-10-09T10:38:36;100566.28;;;16.08;90.56
58471;BME280;44258;51.288;12.068;2023-10-09T10:41:14;100555.16;;;16.11;90.26
58471;BME280;44258;51.288;12.068;2023-10-09T10:43:45;100550.38;;;16.15;90.05
58471;BME280;44258;51.288;12.068;2023-10-09T10:46:14;100547.66;;;16.15;90.34
58471;BME280;44258;51.288;12.068;2023-10-09T10:48:49;100559.16;;;16.19;90.86
58471;BME280;44258;51.288;12.068;2023-10-09T10:51:35;100568.81;;;16.23;91.23
58471;BME280;44258;51.288;12.068;2023-10-09T10:54:07;100562.75;;;16.43;90.19
58471;BME280;44258;51.288;12.068;2023-10-09T10:56:52;100561.91;;;16.54;89.48
58471;BME280;44258;51.288;12.068;2023-10-09T10:59:23;100553.47;;;16.46;90.60
58471;BME280;44258;51.288;12.068;2023-10-09T11:01:50;100561.63;;;16.46;89.70
58471;BME280;44258;51.288;12.068;2023-10-09T11:04:19;100559.97;;;16.32;90.65
58471;BME280;44258;51.288;12.068;2023-10-09T11:06:51;100557.06;;;16.22;91.32
58471;BME280;44258;51.288;12.068;2023-10-09T11:09:19;100557.03;;;16.11;92.29
58471;BME280;44258;51.288;12.068;2023-10-09T11:12:09;100561.34;;;16.13;92.24
58471;BME280;44258;51.288;12.068;2023-10-09T11:14:47;100558.06;;;15.97;92.59
58471;BME280;44258;51.288;12.068;2023-10-09T11:17:31;100561.69;;;16.09;91.40
58471;BME280;44258;51.288;12.068;2023-10-09T11:19:58;100561.59;;;16.10;91.23
58471;BME280;44258;51.288;12.068;2023-10-09T11:22:49;100563.94;;;16.15;90.66
58471;BME280;44258;51.288;12.068;2023-10-09T11:25:46;100569.63;;;15.88;91.87
58471;BME280;44258;51.288;12.068;2023-10-09T11:28:17;100568.44;;;15.79;93.09
58471;BME280;44258;51.288;12.068;2023-10-09T11:30:58;100557.78;;;15.89;92.12
58471;BME280;44258;51.288;12.068;2023-10-09T11:33:44;100576.13;;;15.85;92.01
58471;BME280;44258;51.288;12.068;2023-10-09T11:36:11;100569.94;;;15.83;92.40
58471;BME280;44258;51.288;12.068;2023-10-09T11:38:38;100568.06;;;15.97;91.68
58471;BME280;44258;51.288;12.068;2023-10-09T11:41:19;100575.31;;;15.72;92.71
58471;BME280;44258;51.288;12.068;2023-10-09T11:43:49;100575.00;;;15.64;93.48
58471;BME280;44258;51.288;12.068;2023-10-09T11:46:19;100561.75;;;15.72;92.26
58471;BME280;44258;51.288;12.068;2023-10-09T11:49:05;100563.66;;;15.83;91.66
58471;BME280;44258;51.288;12.068;2023-10-09T11:51:49;100560.47;;;15.65;93.37
58471;BME280;44258;51.288;12.068;2023-10-09T11:54:30;100571.13;;;15.92;91.80
58471;BME280;44258;51.288;12.068;2023-10-09T11:57:00;100574.88;;;16.02;91.61
58471;BME280;44258;51.288;12.068;2023-10-09T11:59:27;100576.03;;;16.11;91.70
58471;BME280;44258;51.288;12.068;2023-10-09T12:01:59;100579.00;;;16.19;91.21
58471;BME280;44258;51.288;12.068;2023-10-09T12:04:29;100577.63;;;16.13;91.57
58471;BME280;44258;51.288;12.068;2023-10-09T12:06:56;100578.00;;;16.20;90.80
58471;BME280;44258;51.288;12.068;2023-10-09T12:09:31;100576.34;;;16.30;90.44
58471;BME280;44258;51.288;12.068;2023-10-09T12:12:02;100591.09;;;16.39;90.13
58471;BME280;44258;51.288;12.068;2023-10-09T12:14:29;100579.03;;;16.43;90.15
58471;BME280;44258;51.288;12.068;2023-10-09T12:16:59;100585.25;;;16.32;90.41
58471;BME280;44258;51.288;12.068;2023-10-09T12:19:31;100586.53;;;16.40;90.31
58471;BME280;44258;51.288;12.068;2023-10-09T12:21:59;100586.16;;;16.44;90.02
58471;BME280;44258;51.288;12.068;2023-10-09T12:24:27;100592.44;;;16.45;89.92
58471;BME280;44258;51.288;12.068;2023-10-09T12:26:58;100590.97;;;16.41;90.44
58471;BME280;44258;51.288;12.068;2023-10-09T12:29:29;100587.09;;;16.32;91.56
58471;BME280;44258;51.288;12.068;2023-10-09T12:31:57;100592.22;;;16.48;90.79
58471;BME280;44258;51.288;12.068;2023-10-09T12:34:25;100590.00;;;16.53;90.66
58471;BME280;44258;51.288;12.068;2023-10-09T12:36:57;100597.56;;;16.49;91.05
58471;BME280;44258;51.288;12.068;2023-10-09T12:39:26;100588.53;;;16.49;91.22
58471;BME280;44258;51.288;12.068;2023-10-09T12:41:58;100588.28;;;16.52;91.13
58471;BME280;44258;51.288;12.068;2023-10-09T12:44:34;100592.97;;;16.50;91.66
58471;BME280;44258;51.288;12.068;2023-10-09T12:47:04;100590.16;;;16.51;91.61
58471;BME280;44258;51.288;12.068;2023-10-09T12:49:31;100593.19;;;16.47;91.99
58471;BME280;44258;51.288;12.068;2023-10-09T12:52:01;100594.19;;;16.46;92.23
58471;BME280;44258;51.288;12.068;2023-10-09T12:54:30;100595.53;;;16.40;92.72
58471;BME280;44258;51.288;12.068;2023-10-09T12:57:01;100590.97;;;16.41;92.48
58471;BME280;44258;51.288;12.068;2023-10-09T12:59:30;100585.06;;;16.47;92.30
58471;BME280;44258;51.288;12.068;2023-10-09T13:02:01;100578.19;;;16.54;92.04
58471;BME280;44258;51.288;12.068;2023-10-09T13:04:31;100575.34;;;16.56;92.12
58471;BME280;44258;51.288;12.068;2023-10-09T13:07:01;100568.06;;;16.56;92.32
58471;BME280;44258;51.288;12.068;2023-10-09T13:09:32;100570.25;;;16.51;92.72
58471;BME280;44258;51.288;12.068;2023-10-09T13:12:01;100568.72;;;16.60;92.50
58471;BME280;44258;51.288;12.068;2023-10-09T13:14:34;100564.13;;;16.60;92.67
58471;BME280;44258;51.288;12.068;2023-10-09T13:17:05;100576.97;;;16.58;92.78
58471;BME280;44258;51.288;12.068;2023-10-09T13:19:35;100572.28;;;16.60;92.57
58471;BME280;44258;51.288;12.068;2023-10-09T13:22:07;100578.84;;;16.69;92.45
58471;BME280;44258;51.288;12.068;2023-10-09T13:24:38;100572.38;;;16.59;92.42
58471;BME280;44258;51.288;12.068;2023-10-09T13:27:08;100567.72;;;16.61;92.90
58471;BME280;44258;51.288;12.068;2023-10-09T13:29:39;100562.28;;;16.61;91.87
58471;BME280;44258;51.288;12.068;2023-10-09T13:32:08;100568.34;;;16.64;91.84